KSFO/SFO METAR and TAF weather

Enter ICAO airport designator
Station Type Date Time Source
KSFO METAR 2021/03/06 00:56 UTC NOAA

KSFO 060056Z 22014KT 10SM FEW017 BKN200 17/09 A3002 RMK AO2 SLP164 T01670094


Station Type Date Time Source
KSFO Decoded METAR 2021/03/06 00:56 UTC NOAA

SAN FRANCISCO INTERNATIONAL AIRPORT , CA, United States (KSFO) 37-37N 122-22W 26M
Mar 05, 2021 - 07:56 PM EST / 2021.03.06 0056 UTC
Wind: from the SW (220 degrees) at 16 MPH (14 KT):0
Visibility: 10 mile(s):0
Sky conditions: mostly cloudy
Temperature: 62.1 F (16.7 C)
Dew Point: 48.9 F (9.4 C)
Relative Humidity: 62%
Pressure (altimeter): 30.02 in. Hg (1016 hPa)
ob: KSFO 060056Z 22014KT 10SM FEW017 BKN200 17/09 A3002 RMK AO2 SLP164 T01670094
cycle: 1

Station Type Date Time Source
KSFO TAF 2021/03/05 23:45 UTC NOAA

TAF
AMD KSFO 052242Z 0523/0624 04006KT P6SM FEW040
FM060000 22010KT P6SM FEW020 SCT150
FM060500 20014G26KT 6SM -RA BR BKN015 OVC030
FM060900 29011G19KT P6SM VCSH FEW012 BKN018 OVC030
FM061300 31009KT P6SM SCT018 OVC035
FM061800 31007KT P6SM FEW015 SCT040

Example: see airport list